Terminal Aerodrome Forecast
Issued by NWS Wichita, KS

Home | Current Version | Previous Version | Text Only | Print | Product List | Glossary On
Versions: 1 2 3 4 5 6 7 8 9 10 11 12 13 14 15 16 17 18 19 20 21 22 23 24
000
FTUS43 KICT 040936 AAC
TAFICT
TAF AMD
KICT 040936Z 0410/0506 02020G30KT 5SM -SN OVC035
      TEMPO 0410/0413 2SM -SN BR OVC012
     FM041900 02013KT P6SM SCT020 BKN100
     FM050000 01007KT P6SM SCT120=

USA.gov is the U.S. government's official web portal to all federal, state and local government web resources and services.